createdAt,value
2022-11-27T00:02:08.283Z,8.75
2022-11-27T00:06:09.982Z,8.97
2022-11-27T00:10:12.364Z,9.08
2022-11-27T00:14:18.917Z,9.05
2022-11-27T00:18:19.596Z,8.94
2022-11-27T00:22:20.036Z,8.97
2022-11-27T00:26:20.974Z,8.96
2022-11-27T00:30:23.813Z,8.96
2022-11-27T00:34:23.902Z,8.79
2022-11-27T00:38:24.440Z,8.67
2022-11-27T00:42:24.573Z,8.74
2022-11-27T00:46:30.145Z,8.70
2022-11-27T00:50:32.063Z,8.68
2022-11-27T00:54:32.169Z,8.68
2022-11-27T00:58:32.659Z,8.66
2022-11-27T01:02:35.638Z,8.81
2022-11-27T01:06:36.242Z,8.76
2022-11-27T01:10:36.751Z,8.59
2022-11-27T01:14:37.669Z,8.48
2022-11-27T01:18:44.195Z,8.37
2022-11-27T01:22:44.314Z,8.34
2022-11-27T01:26:45.215Z,8.22
2022-11-27T01:30:45.782Z,8.17
2022-11-27T01:34:48.577Z,8.11
2022-11-27T01:38:48.656Z,8.10
2022-11-27T01:42:48.771Z,8.00
2022-11-27T01:46:53.145Z,8.06
2022-11-27T01:50:56.527Z,8.13
2022-11-27T01:55:02.631Z,8.25
2022-11-27T01:59:03.706Z,7.97
2022-11-27T02:03:04.116Z,8.22
2022-11-27T02:07:06.938Z,8.19
2022-11-27T02:11:15.761Z,8.30
2022-11-27T02:15:25.275Z,8.21
2022-11-27T02:19:43.637Z,8.25
2022-11-27T02:24:30.206Z,7.89
2022-11-27T02:28:47.449Z,7.83
2022-11-27T02:32:59.936Z,7.71
2022-11-27T02:37:09.767Z,7.79
2022-11-27T02:41:17.374Z,7.54
2022-11-27T02:45:24.835Z,7.79
2022-11-27T02:49:28.836Z,7.94
2022-11-27T02:53:38.017Z,8.14
2022-11-27T02:57:42.347Z,8.27
2022-11-27T03:01:48.711Z,8.09
2022-11-27T03:05:58.160Z,8.00
2022-11-27T03:10:05.963Z,8.18
2022-11-27T03:14:11.091Z,8.31
2022-11-27T03:18:25.466Z,8.09
2022-11-27T03:22:29.154Z,8.33
2022-11-27T03:26:29.655Z,8.34
2022-11-27T03:30:30.097Z,8.40
2022-11-27T03:34:31.149Z,8.18
2022-11-27T03:38:33.875Z,8.28
2022-11-27T03:42:46.632Z,8.26
2022-11-27T03:47:01.420Z,8.15
2022-11-27T03:51:13.019Z,8.05
2022-11-27T03:55:26.662Z,8.00
2022-11-27T03:59:33.390Z,8.02
2022-11-27T04:03:34.065Z,7.84
2022-11-27T04:07:34.259Z,7.77
2022-11-27T04:11:37.094Z,7.58
2022-11-27T04:15:37.288Z,7.88
2022-11-27T04:19:37.698Z,7.98
2022-11-27T04:23:38.566Z,8.00
2022-11-27T04:27:41.379Z,7.65
2022-11-27T04:31:41.489Z,7.66
2022-11-27T04:35:41.635Z,7.88
2022-11-27T04:39:41.793Z,7.72
2022-11-27T04:43:44.838Z,7.59
2022-11-27T04:47:45.114Z,7.88
2022-11-27T04:51:45.939Z,7.36
2022-11-27T04:55:46.174Z,7.27
2022-11-27T04:59:48.860Z,6.87
2022-11-27T05:03:51.009Z,7.08
2022-11-27T05:07:51.155Z,7.31
2022-11-27T05:11:51.457Z,7.34
2022-11-27T05:15:54.113Z,7.27
2022-11-27T05:19:54.532Z,7.45
2022-11-27T05:23:54.576Z,7.44
2022-11-27T05:27:55.759Z,7.21
2022-11-27T05:31:58.443Z,7.28
2022-11-27T05:35:58.623Z,6.88
2022-11-27T05:39:59.025Z,6.87
2022-11-27T05:43:59.180Z,7.00
2022-11-27T05:48:01.952Z,6.97
2022-11-27T05:52:02.115Z,6.70
2022-11-27T05:56:05.691Z,6.60
2022-11-27T06:00:07.314Z,6.57
2022-11-27T06:04:10.010Z,6.58
2022-11-27T06:08:10.508Z,6.25
2022-11-27T06:12:11.352Z,6.30
2022-11-27T06:16:16.986Z,6.50
2022-11-27T06:20:20.453Z,6.67
2022-11-27T06:24:20.587Z,6.92
2022-11-27T06:28:20.727Z,7.03
2022-11-27T06:32:20.817Z,7.15
2022-11-27T06:36:28.157Z,7.22
2022-11-27T06:40:28.426Z,7.19
2022-11-27T06:44:28.677Z,7.20
2022-11-27T06:48:29.293Z,7.54
2022-11-27T06:52:34.678Z,7.70
2022-11-27T06:56:38.915Z,7.79
2022-11-27T07:00:39.295Z,7.48
2022-11-27T07:04:40.548Z,7.53
2022-11-27T07:08:44.299Z,7.29
2022-11-27T07:12:44.372Z,7.31
2022-11-27T07:16:44.610Z,7.36
2022-11-27T07:20:44.744Z,7.65
2022-11-27T07:24:47.473Z,7.76
2022-11-27T07:28:48.672Z,7.75
2022-11-27T07:32:48.805Z,7.86
2022-11-27T07:36:49.140Z,7.87
2022-11-27T07:40:53.903Z,7.90
2022-11-27T07:44:54.246Z,7.88
2022-11-27T07:48:54.748Z,7.93
2022-11-27T07:52:54.806Z,8.05
2022-11-27T07:56:57.440Z,8.05
2022-11-27T08:00:57.623Z,8.32
2022-11-27T08:04:57.894Z,8.20
2022-11-27T08:08:58.775Z,8.19
2022-11-27T08:13:01.739Z,8.40
2022-11-27T08:17:02.069Z,8.39
2022-11-27T08:21:03.688Z,8.59
2022-11-27T08:25:03.958Z,8.55
2022-11-27T08:29:06.731Z,7.98
2022-11-27T08:33:07.024Z,8.11
2022-11-27T08:37:07.369Z,8.25
2022-11-27T08:41:10.529Z,8.13
2022-11-27T08:45:13.910Z,8.47
2022-11-27T08:49:27.769Z,8.84
2022-11-27T08:53:28.052Z,8.67
2022-11-27T08:57:28.660Z,8.79
2022-11-27T09:01:32.179Z,8.81
2022-11-27T09:05:35.523Z,8.66
2022-11-27T09:09:35.975Z,8.82
2022-11-27T09:13:37.315Z,8.75
2022-11-27T09:17:37.433Z,9.22
2022-11-27T09:21:40.496Z,9.23
2022-11-27T09:25:42.087Z,9.36
2022-11-27T09:29:42.271Z,9.71
2022-11-27T09:33:44.358Z,9.41
2022-11-27T09:37:47.047Z,9.55
2022-11-27T09:41:52.231Z,9.44
2022-11-27T09:45:58.092Z,9.72
2022-11-27T09:50:05.917Z,9.98
2022-11-27T09:54:18.394Z,10.21
2022-11-27T09:58:24.659Z,10.38
2022-11-27T10:02:33.533Z,10.01
2022-11-27T10:06:41.507Z,10.10
2022-11-27T10:11:03.148Z,10.30
2022-11-27T10:15:13.424Z,9.73
2022-11-27T10:19:33.663Z,9.62
2022-11-27T10:23:48.773Z,9.72
2022-11-27T10:28:07.612Z,9.52
2022-11-27T10:32:46.966Z,9.41
2022-11-27T10:36:44.864Z,9.65
2022-11-27T10:40:54.920Z,9.94
2022-11-27T10:45:05.709Z,9.80
2022-11-27T10:49:05.996Z,10.22
2022-11-27T10:53:12.308Z,10.40
2022-11-27T10:57:43.235Z,10.24
2022-11-27T11:06:28.600Z,9.02
2022-11-27T11:11:16.436Z,8.90
2022-11-27T11:15:25.051Z,9.92
2022-11-27T11:19:41.444Z,9.25
2022-11-27T11:23:56.259Z,9.76
2022-11-27T11:27:56.888Z,9.68
2022-11-27T11:32:02.217Z,9.80
2022-11-27T11:36:14.252Z,9.63
2022-11-27T11:40:27.515Z,9.95
2022-11-27T11:44:35.527Z,9.68
2022-11-27T11:48:43.449Z,10.11
2022-11-27T11:53:02.154Z,10.08
2022-11-27T11:57:13.541Z,9.53
2022-11-27T12:01:54.318Z,10.43
2022-11-27T12:06:18.384Z,10.32
2022-11-27T12:10:30.612Z,10.25
2022-11-27T12:14:46.781Z,10.02
2022-11-27T12:19:19.148Z,10.32
2022-11-27T12:23:56.380Z,9.98
2022-11-27T12:28:25.051Z,9.93
2022-11-27T12:32:53.413Z,9.63
2022-11-27T12:37:31.159Z,9.43
2022-11-27T12:42:00.663Z,9.28
2022-11-27T12:46:13.023Z,9.43
2022-11-27T12:50:23.963Z,9.80
2022-11-27T12:54:30.611Z,9.97
2022-11-27T12:58:37.015Z,10.22
2022-11-27T13:02:49.308Z,9.85
2022-11-27T13:07:01.429Z,9.90
2022-11-27T13:11:09.489Z,10.23
2022-11-27T13:15:24.099Z,9.61
2022-11-27T13:19:35.421Z,9.40
2022-11-27T13:23:36.831Z,9.62
2022-11-27T13:27:40.497Z,9.77
2022-11-27T13:31:42.152Z,9.96
2022-11-27T13:35:46.161Z,9.89
2022-11-27T13:39:47.373Z,9.93
2022-11-27T13:43:50.580Z,9.89
2022-11-27T13:47:53.170Z,9.82
2022-11-27T13:52:16.439Z,9.70
2022-11-27T13:56:19.239Z,9.49
2022-11-27T14:00:20.847Z,9.63
2022-11-27T14:04:21.028Z,9.69
2022-11-27T14:08:31.918Z,9.34
2022-11-27T14:12:36.195Z,9.86
2022-11-27T14:16:39.643Z,9.48
2022-11-27T14:20:50.811Z,9.59
2022-11-27T14:24:57.892Z,9.24
2022-11-27T14:29:00.537Z,9.43
2022-11-27T14:33:00.870Z,9.69
2022-11-27T14:37:02.545Z,9.35
2022-11-27T14:41:20.033Z,9.18
2022-11-27T14:45:23.988Z,9.41
2022-11-27T14:49:30.977Z,9.46
2022-11-27T14:53:32.129Z,9.58
2022-11-27T14:57:35.142Z,9.73
2022-11-27T15:01:37.795Z,9.76
2022-11-27T15:05:41.200Z,9.96
2022-11-27T15:09:47.393Z,9.76
2022-11-27T15:13:56.971Z,9.69
2022-11-27T15:18:01.780Z,9.59
2022-11-27T15:22:02.520Z,9.29
2022-11-27T15:26:19.927Z,9.72
2022-11-27T15:30:26.152Z,9.80
2022-11-27T15:34:30.082Z,9.48
2022-11-27T15:38:30.278Z,9.42
2022-11-27T15:42:31.234Z,9.66
2022-11-27T15:46:38.255Z,9.36
2022-11-27T15:50:38.392Z,9.62
2022-11-27T15:54:38.598Z,9.63
2022-11-27T15:58:38.867Z,9.55
2022-11-27T16:02:42.441Z,9.69
2022-11-27T16:06:42.645Z,9.64
2022-11-27T16:10:43.758Z,9.62
2022-11-27T16:14:43.933Z,9.48
2022-11-27T16:18:46.949Z,9.38
2022-11-27T16:22:47.083Z,9.59
2022-11-27T16:26:50.099Z,9.19
2022-11-27T16:30:50.259Z,9.34
2022-11-27T16:34:53.276Z,9.30
2022-11-27T16:38:55.991Z,9.23
2022-11-27T16:42:57.812Z,9.24
2022-11-27T16:46:58.203Z,9.32
2022-11-27T16:51:06.170Z,9.26
2022-11-27T16:55:06.652Z,9.19
2022-11-27T16:59:11.584Z,9.26
2022-11-27T17:03:11.866Z,9.49
2022-11-27T17:07:14.583Z,9.51
2022-11-27T17:11:17.335Z,9.12
2022-11-27T17:15:17.519Z,9.50
2022-11-27T17:19:18.802Z,9.29
2022-11-27T17:23:21.507Z,9.31
2022-11-27T17:27:21.746Z,9.16
2022-11-27T17:31:24.752Z,9.44
2022-11-27T17:35:25.287Z,9.40
2022-11-27T17:39:28.964Z,9.19
2022-11-27T17:43:30.506Z,9.37
2022-11-27T17:47:30.616Z,9.22
2022-11-27T17:51:34.185Z,9.13
2022-11-27T17:55:37.071Z,8.95
2022-11-27T17:59:37.429Z,8.90
2022-11-27T18:03:37.962Z,9.27
2022-11-27T18:07:38.174Z,9.39
2022-11-27T18:11:41.973Z,9.51
2022-11-27T18:15:44.146Z,9.32
2022-11-27T18:19:44.325Z,9.52
2022-11-27T18:24:20.565Z,9.82
2022-11-27T18:28:10.149Z,9.96
2022-11-27T18:32:10.985Z,9.96
2022-11-27T18:36:13.306Z,9.63
2022-11-27T18:40:14.756Z,9.65
2022-11-27T18:44:18.478Z,9.81
2022-11-27T18:48:18.621Z,9.85
2022-11-27T18:52:19.007Z,9.83
2022-11-27T18:56:22.660Z,9.81
2022-11-27T19:00:25.749Z,9.76
2022-11-27T19:04:26.215Z,9.99
2022-11-27T19:08:27.012Z,9.73
2022-11-27T19:12:27.586Z,9.87
2022-11-27T19:16:34.134Z,9.91
2022-11-27T19:20:34.453Z,9.89
2022-11-27T19:24:34.677Z,9.68
2022-11-27T19:28:35.036Z,9.34
2022-11-27T19:32:38.125Z,9.30
2022-11-27T19:36:39.100Z,9.33
2022-11-27T19:40:41.580Z,9.08
2022-11-27T19:44:42.495Z,9.23
2022-11-27T19:48:45.839Z,9.12
2022-11-27T19:52:46.323Z,9.47
2022-11-27T19:56:46.747Z,9.60
2022-11-27T20:00:47.180Z,9.43
2022-11-27T20:04:50.582Z,9.46
2022-11-27T20:08:53.255Z,9.63
2022-11-27T20:12:54.488Z,9.72
2022-11-27T20:16:54.859Z,9.99
2022-11-27T20:21:08.512Z,9.86
2022-11-27T20:25:19.610Z,9.87
2022-11-27T20:29:20.912Z,10.12
2022-11-27T20:33:21.071Z,10.07
2022-11-27T20:37:23.775Z,9.88
2022-11-27T20:41:26.621Z,9.68
2022-11-27T20:45:29.079Z,9.73
2022-11-27T20:49:29.272Z,9.58
2022-11-27T20:53:31.963Z,9.85
2022-11-27T20:57:32.067Z,9.72
2022-11-27T21:01:35.520Z,10.01
2022-11-27T21:05:36.146Z,9.82
2022-11-27T21:09:40.071Z,9.67
2022-11-27T21:13:41.696Z,9.96
2022-11-27T21:17:42.161Z,9.93
2022-11-27T21:21:42.584Z,9.99
2022-11-27T21:25:45.480Z,9.83
2022-11-27T21:29:46.367Z,9.84
2022-11-27T21:33:51.968Z,9.56
2022-11-27T21:37:52.103Z,9.66
2022-11-27T21:41:57.788Z,9.83
2022-11-27T21:45:58.971Z,9.73
2022-11-27T21:49:59.369Z,9.53
2022-11-27T21:54:01.420Z,9.93
2022-11-27T21:58:04.207Z,9.71
2022-11-27T22:02:04.637Z,9.77
2022-11-27T22:06:12.612Z,9.68
2022-11-27T22:10:14.638Z,9.88
2022-11-27T22:14:19.161Z,9.95
2022-11-27T22:18:19.346Z,10.11
2022-11-27T22:22:19.692Z,9.72
2022-11-27T22:26:23.047Z,9.90
2022-11-27T22:30:29.497Z,9.65
2022-11-27T22:34:29.608Z,9.92
2022-11-27T22:38:29.702Z,9.61
2022-11-27T22:42:30.260Z,9.84
2022-11-27T22:46:36.959Z,9.74
2022-11-27T22:50:37.113Z,9.84
2022-11-27T22:54:37.281Z,9.93
2022-11-27T22:58:41.630Z,9.83
2022-11-27T23:02:44.802Z,9.85
2022-11-27T23:06:47.481Z,9.94
2022-11-27T23:10:48.709Z,9.67
2022-11-27T23:14:48.778Z,9.82
2022-11-27T23:18:52.973Z,9.85
2022-11-27T23:22:53.184Z,10.07
2022-11-27T23:26:53.408Z,10.03
2022-11-27T23:31:15.344Z,10.28
2022-11-27T23:35:16.287Z,10.24
2022-11-27T23:39:17.116Z,10.05
2022-11-27T23:43:17.216Z,10.16
2022-11-27T23:47:17.242Z,9.88
2022-11-27T23:51:23.590Z,9.84
2022-11-27T23:55:23.726Z,9.94
2022-11-27T23:59:23.798Z,10.03
